Time;durP1;ratioP1;P1;durP2;ratioP2;P2;SDS_P1;SDS_P2;PMS_P1;PMS_P2;Temp;Humidity;BMP_temperature;BMP_pressure;BME280_temperature;BME280_humidity;BME280_pressure;Samples;Min_cycle;Max_cycle;Signal;HPM_P1;HPM_P2
2021/05/24 00:02:22;;;;;;;0.42;0.40;;;;;;;13.39;79.66;98039.44;1662816;85;21030;-64
2021/05/24 00:04:49;;;;;;;0.40;0.35;;;;;;;13.39;79.13;98040.74;1662936;85;21222;-64
2021/05/24 00:07:16;;;;;;;0.75;0.42;;;;;;;13.39;77.92;98051.17;1662461;85;21086;-65
2021/05/24 00:09:43;;;;;;;0.30;0.30;;;;;;;13.41;77.81;98057.55;1662738;85;21725;-65
2021/05/24 00:12:10;;;;;;;0.50;0.40;;;;;;;13.39;77.77;98051.17;1662626;85;21598;-64
2021/05/24 00:14:39;;;;;;;0.65;0.40;;;;;;;13.29;79.36;98048.72;1662567;85;21098;-67
2021/05/24 00:17:06;;;;;;;0.47;0.40;;;;;;;13.27;79.01;98053.73;1662522;85;21574;-64
2021/05/24 00:19:34;;;;;;;2.15;0.30;;;;;;;13.22;79.37;98048.20;1662656;85;21224;-64
2021/05/24 00:22:01;;;;;;;0.33;0.33;;;;;;;13.16;79.40;98047.50;1680886;81;21229;-64
2021/05/24 00:24:28;;;;;;;0.30;0.30;;;;;;;13.14;78.80;98058.59;1663658;83;21149;-63
2021/05/24 00:26:55;;;;;;;0.40;0.40;;;;;;;13.12;79.34;98057.43;1662680;85;21610;-64
2021/05/24 00:29:22;;;;;;;0.35;0.33;;;;;;;13.10;79.26;98068.52;1662889;85;21153;-64
2021/05/24 00:31:49;;;;;;;0.30;0.30;;;;;;;13.10;79.23;98061.18;1662612;85;21153;-64
2021/05/24 00:34:16;;;;;;;0.68;0.40;;;;;;;13.07;79.80;98058.86;1662676;85;21081;-64
2021/05/24 00:36:43;;;;;;;0.30;0.20;;;;;;;13.07;79.91;98067.98;1662707;85;21161;-64
2021/05/24 00:39:10;;;;;;;0.50;0.50;;;;;;;13.08;79.58;98067.81;1662806;85;21106;-64
2021/05/24 00:41:40;;;;;;;0.33;0.33;;;;;;;13.06;79.97;98073.68;1668478;84;21156;-64
2021/05/24 00:44:09;;;;;;;0.47;0.28;;;;;;;13.05;79.37;98072.52;1662583;85;21103;-64
2021/05/24 00:46:38;;;;;;;0.42;0.35;;;;;;;13.07;79.53;98077.11;1662606;85;21089;-64
2021/05/24 00:49:06;;;;;;;0.42;0.42;;;;;;;13.07;79.43;98082.32;1662739;85;21155;-64
2021/05/24 00:51:34;;;;;;;0.30;0.30;;;;;;;13.10;79.23;98085.95;1662502;85;21161;-64
2021/05/24 00:54:03;;;;;;;0.33;0.30;;;;;;;13.15;79.02;98093.62;1662762;85;21130;-64
2021/05/24 00:56:30;;;;;;;0.30;0.20;;;;;;;13.18;78.58;98094.63;1662681;85;21169;-64
2021/05/24 00:58:58;;;;;;;0.42;0.23;;;;;;;13.18;79.04;98101.16;1662741;85;21058;-64
2021/05/24 01:01:28;;;;;;;0.25;0.25;;;;;;;13.22;78.67;98103.78;1662622;85;21561;-64
2021/05/24 01:03:56;;;;;;;0.57;0.53;;;;;;;13.24;78.90;98103.13;1662774;85;21173;-64
2021/05/24 01:06:22;;;;;;;0.53;0.40;;;;;;;13.23;78.04;98100.66;1662813;85;21058;-64
2021/05/24 01:08:49;;;;;;;0.30;0.30;;;;;;;13.27;78.05;98110.63;1662826;85;21085;-65
2021/05/24 01:11:16;;;;;;;1.00;0.42;;;;;;;13.27;77.79;98111.11;1662779;85;21114;-64
2021/05/24 01:13:44;;;;;;;0.30;0.30;;;;;;;13.25;77.88;98114.38;1662554;85;21669;-64
2021/05/24 01:16:11;;;;;;;0.60;0.40;;;;;;;13.24;78.18;98122.69;1662738;85;21074;-64
2021/05/24 01:18:38;;;;;;;0.57;0.40;;;;;;;13.22;78.62;98125.95;1662759;85;21073;-65
2021/05/24 01:21:11;;;;;;;0.60;0.47;;;;;;;13.26;77.92;98129.06;1662590;85;21106;-65
2021/05/24 01:23:43;;;;;;;2.58;0.40;;;;;;;13.26;77.92;98127.27;1662504;85;21093;-68
2021/05/24 01:26:11;;;;;;;0.85;0.40;;;;;;;13.29;77.73;98132.17;1662789;85;21077;-65
2021/05/24 01:28:39;;;;;;;0.47;0.47;;;;;;;13.33;77.53;98136.59;1662848;85;21677;-65
2021/05/24 01:31:06;;;;;;;0.68;0.50;;;;;;;13.33;77.85;98148.33;1662687;85;21066;-65
2021/05/24 01:33:35;;;;;;;0.95;0.65;;;;;;;13.31;78.15;98150.25;1662750;85;21213;-63
2021/05/24 01:36:09;;;;;;;1.02;0.62;;;;;;;13.36;77.72;98153.70;1662885;85;21124;-65
2021/05/24 01:38:39;;;;;;;0.68;0.57;;;;;;;13.39;77.55;98159.91;1662761;85;21154;-65
2021/05/24 01:41:09;;;;;;;0.78;0.55;;;;;;;13.36;78.21;98163.66;1662856;85;21498;-63
2021/05/24 01:43:37;;;;;;;0.70;0.62;;;;;;;13.40;77.46;98166.29;1662782;85;21042;-63
2021/05/24 01:46:05;;;;;;;0.72;0.70;;;;;;;13.40;77.35;98170.20;1662882;85;21082;-63
2021/05/24 01:48:36;;;;;;;2.67;0.60;;;;;;;13.43;76.87;98176.41;1662969;85;21153;-64
2021/05/24 01:51:04;;;;;;;1.10;0.65;;;;;;;13.47;76.15;98176.43;1662800;85;21079;-63
2021/05/24 01:53:32;;;;;;;0.50;0.50;;;;;;;13.50;74.51;98185.75;1662687;85;21094;-63
2021/05/24 01:55:59;;;;;;;0.60;0.50;;;;;;;13.48;74.85;98180.68;1662836;85;21136;-63
2021/05/24 01:58:27;;;;;;;3.15;0.40;;;;;;;13.47;74.69;98186.86;1662841;85;21195;-64
2021/05/24 02:01:07;;;;;;;0.40;0.40;;;;;;;13.42;74.88;98203.97;1663058;85;21114;-63
2021/05/24 02:03:35;;;;;;;0.37;0.30;;;;;;;13.38;74.37;98202.16;1663208;85;21661;-64
2021/05/24 02:06:04;;;;;;;0.65;0.40;;;;;;;13.34;74.22;98209.14;1663367;85;21122;-63
2021/05/24 02:08:33;;;;;;;0.70;0.50;;;;;;;13.27;75.62;98205.82;1662750;85;21204;-65
2021/05/24 02:11:02;;;;;;;0.60;0.33;;;;;;;13.23;73.91;98199.28;1663113;85;21090;-63
2021/05/24 02:13:29;;;;;;;0.53;0.50;;;;;;;13.17;74.11;98201.20;1663044;85;21661;-63
2021/05/24 02:15:56;;;;;;;0.90;0.60;;;;;;;13.12;73.49;98203.45;1662911;85;21629;-62
2021/05/24 02:18:23;;;;;;;0.47;0.40;;;;;;;13.03;74.91;98210.05;1663010;85;21632;-63
2021/05/24 02:20:51;;;;;;;0.60;0.40;;;;;;;12.97;75.49;98198.90;1662784;85;21098;-64
2021/05/24 02:23:18;;;;;;;0.50;0.50;;;;;;;12.93;74.74;98210.59;1669597;82;21133;-61
2021/05/24 02:25:45;;;;;;;1.62;0.40;;;;;;;12.84;75.96;98221.44;1696995;83;21058;-62
2021/05/24 02:28:11;;;;;;;1.47;0.55;;;;;;;12.77;75.79;98222.53;1696887;83;21713;-63
2021/05/24 02:30:38;;;;;;;1.12;0.40;;;;;;;12.72;75.39;98228.67;1696848;83;21601;-63
2021/05/24 02:33:05;;;;;;;0.35;0.35;;;;;;;12.66;75.64;98235.80;1696950;83;21070;-63
2021/05/24 02:35:33;;;;;;;0.45;0.45;;;;;;;12.61;75.57;98231.50;1696855;83;21161;-62
2021/05/24 02:38:00;;;;;;;0.85;0.35;;;;;;;12.52;76.15;98247.22;1696683;83;21107;-63
2021/05/24 02:40:28;;;;;;;0.80;0.50;;;;;;;12.52;75.50;98257.64;1696794;83;21193;-63
2021/05/24 02:42:55;;;;;;;0.50;0.50;;;;;;;12.47;74.53;98263.28;1696598;83;21090;-64
2021/05/24 02:45:22;;;;;;;0.50;0.30;;;;;;;12.45;75.12;98270.41;1696795;83;21059;-64
2021/05/24 02:47:50;;;;;;;0.37;0.37;;;;;;;12.40;75.77;98280.95;1696805;83;21042;-63
2021/05/24 02:50:21;;;;;;;0.68;0.35;;;;;;;12.36;75.60;98277.34;1696777;83;21573;-62
2021/05/24 02:52:48;;;;;;;0.30;0.30;;;;;;;12.32;75.19;98272.09;1696819;83;21672;-63
2021/05/24 02:55:16;;;;;;;1.10;0.40;;;;;;;12.29;75.09;98268.45;1696958;83;21082;-63
2021/05/24 02:57:44;;;;;;;0.30;0.23;;;;;;;12.27;74.69;98281.29;1696923;83;21050;-63
2021/05/24 03:00:13;;;;;;;0.40;0.40;;;;;;;12.24;75.45;98285.02;1696577;83;21618;-64
2021/05/24 03:02:45;;;;;;;0.90;0.50;;;;;;;12.20;75.42;98288.87;1696711;83;21046;-63
2021/05/24 03:05:11;;;;;;;0.60;0.37;;;;;;;12.17;75.42;98289.64;1696850;83;21126;-63
2021/05/24 03:07:38;;;;;;;0.90;0.50;;;;;;;12.15;75.56;98294.16;1696759;83;21065;-63
2021/05/24 03:10:11;;;;;;;1.40;0.70;;;;;;;12.11;77.75;98292.80;1696902;83;21138;-64
2021/05/24 03:12:38;;;;;;;0.40;0.40;;;;;;;12.02;78.64;98301.50;1696822;81;21087;-66
2021/05/24 03:15:06;;;;;;;0.60;0.42;;;;;;;11.96;79.24;98311.16;1696640;83;21090;-63
2021/05/24 03:17:33;;;;;;;0.53;0.33;;;;;;;11.90;78.23;98318.56;1696765;83;21115;-63
2021/05/24 03:20:00;;;;;;;0.40;0.40;;;;;;;11.90;77.67;98333.39;1696847;83;21155;-63
2021/05/24 03:22:27;;;;;;;0.60;0.40;;;;;;;11.88;79.48;98340.50;1692620;83;21098;-63
2021/05/24 03:24:54;;;;;;;0.28;0.28;;;;;;;11.89;76.96;98348.66;1696661;83;21094;-63
2021/05/24 03:27:21;;;;;;;0.30;0.30;;;;;;;11.92;75.94;98345.77;1696700;83;21949;-63
2021/05/24 03:29:48;;;;;;;0.57;0.47;;;;;;;11.95;75.32;98348.55;1696913;83;21101;-63
2021/05/24 03:32:15;;;;;;;0.60;0.47;;;;;;;11.99;74.85;98349.91;1696762;81;21074;-63
2021/05/24 03:34:42;;;;;;;0.98;0.82;;;;;;;12.01;74.51;98346.23;1696663;83;21555;-63
2021/05/24 03:37:09;;;;;;;0.70;0.40;;;;;;;12.02;74.80;98343.97;1696723;83;21630;-65
2021/05/24 03:39:36;;;;;;;0.20;0.20;;;;;;;12.01;74.46;98346.23;1696811;82;21129;-63
2021/05/24 03:42:07;;;;;;;0.55;0.30;;;;;;;12.04;74.79;98348.53;1696753;83;21074;-63
2021/05/24 03:44:37;;;;;;;0.50;0.50;;;;;;;12.05;74.32;98346.76;1696980;81;21620;-63
2021/05/24 03:47:04;;;;;;;0.25;0.25;;;;;;;12.05;74.62;98354.09;1696651;83;21102;-64
2021/05/24 03:49:31;;;;;;;0.50;0.47;;;;;;;12.07;74.10;98365.16;1696742;81;21086;-63
2021/05/24 03:51:57;;;;;;;0.60;0.50;;;;;;;12.09;73.47;98370.24;1696872;83;21090;-63
2021/05/24 03:54:24;;;;;;;0.78;0.57;;;;;;;12.11;73.96;98381.31;1696732;83;21093;-64
2021/05/24 03:56:51;;;;;;;0.30;0.30;;;;;;;12.12;73.20;98393.37;1696702;83;21110;-63
2021/05/24 03:59:19;;;;;;;0.75;0.17;;;;;;;12.12;73.82;98395.98;1696824;83;21074;-62
2021/05/24 04:01:46;;;;;;;0.40;0.40;;;;;;;12.13;73.01;98391.95;1696860;83;21081;-66
2021/05/24 04:04:14;;;;;;;0.88;0.40;;;;;;;12.14;73.18;98383.66;1696712;83;21054;-64
2021/05/24 04:06:43;;;;;;;0.50;0.42;;;;;;;12.15;73.00;98386.11;1696806;83;21101;-62
2021/05/24 04:09:10;;;;;;;0.37;0.37;;;;;;;12.14;75.01;98387.06;1696698;83;21111;-65
2021/05/24 04:11:37;;;;;;;0.85;0.60;;;;;;;12.16;73.41;98385.63;1696704;83;21606;-63
2021/05/24 04:14:04;;;;;;;0.65;0.37;;;;;;;12.16;74.14;98388.23;1696654;83;21213;-63
2021/05/24 04:16:31;;;;;;;0.68;0.47;;;;;;;12.16;73.59;98392.14;1697027;83;21101;-67
2021/05/24 04:18:58;;;;;;;0.60;0.60;;;;;;;12.13;73.38;98395.86;1696801;83;21058;-63
2021/05/24 04:21:25;;;;;;;0.50;0.40;;;;;;;12.10;74.40;98399.22;1696837;83;21161;-63
2021/05/24 04:23:52;;;;;;;1.00;0.60;;;;;;;12.13;74.37;98410.65;1696685;83;21103;-63
2021/05/24 04:26:18;;;;;;;0.40;0.40;;;;;;;12.15;73.00;98414.74;1696771;83;21047;-64
2021/05/24 04:28:45;;;;;;;0.23;0.23;;;;;;;12.16;73.75;98435.92;1696849;83;21042;-64
2021/05/24 04:31:12;;;;;;;0.60;0.45;;;;;;;12.19;73.73;98442.62;1696684;83;21121;-64
2021/05/24 04:33:39;;;;;;;0.40;0.40;;;;;;;12.28;73.28;98449.59;1696722;83;21066;-64
2021/05/24 04:36:06;;;;;;;0.37;0.30;;;;;;;12.32;73.16;98448.34;1696690;83;21075;-64
2021/05/24 04:38:33;;;;;;;0.55;0.45;;;;;;;12.34;72.62;98443.80;1696761;83;21094;-65
2021/05/24 04:41:00;;;;;;;0.55;0.35;;;;;;;12.42;72.56;98450.42;1696716;82;21059;-64
2021/05/24 04:43:32;;;;;;;0.40;0.40;;;;;;;12.48;72.52;98447.27;1696834;83;21118;-64
2021/05/24 04:45:56;;;;;;;1.07;0.50;;;;;;;12.60;71.97;98455.25;1696679;81;21633;-65
2021/05/24 04:48:23;;;;;;;1.37;0.40;;;;;;;12.71;72.07;98461.58;1696861;83;21070;-64
2021/05/24 04:50:50;;;;;;;2.10;0.40;;;;;;;12.76;70.95;98468.97;1696694;83;21240;-66
2021/05/24 04:53:18;;;;;;;0.70;0.50;;;;;;;12.76;70.83;98465.85;1696668;81;21126;-64
2021/05/24 04:55:45;;;;;;;0.35;0.30;;;;;;;12.77;70.44;98463.59;1696851;82;21077;-63
2021/05/24 04:58:12;;;;;;;1.92;0.60;;;;;;;12.77;70.60;98474.02;1696670;83;21348;-64
2021/05/24 05:00:40;;;;;;;1.05;0.50;;;;;;;12.78;70.84;98479.58;1696769;83;21098;-65
2021/05/24 05:03:07;;;;;;;0.47;0.40;;;;;;;12.83;70.70;98487.80;1696833;82;21030;-65
2021/05/24 05:05:35;;;;;;;1.00;0.50;;;;;;;12.90;70.36;98495.84;1696914;83;21081;-64
2021/05/24 05:08:02;;;;;;;0.65;0.53;;;;;;;12.96;70.53;98493.13;1696675;81;21056;-65
2021/05/24 05:10:29;;;;;;;0.85;0.50;;;;;;;13.04;69.99;98500.57;1696874;81;21055;-65
2021/05/24 05:12:56;;;;;;;0.42;0.33;;;;;;;13.06;69.87;98505.17;1696813;83;21098;-65
2021/05/24 05:15:24;;;;;;;0.20;0.20;;;;;;;13.14;69.78;98512.30;1696702;83;21073;-65
2021/05/24 05:17:51;;;;;;;2.55;0.42;;;;;;;13.23;69.59;98510.10;1696641;82;21066;-65
2021/05/24 05:20:18;;;;;;;0.57;0.30;;;;;;;13.32;69.59;98507.94;1697061;83;21102;-66
2021/05/24 05:22:45;;;;;;;0.55;0.40;;;;;;;13.43;69.47;98508.20;1696985;82;21125;-66
2021/05/24 05:25:13;;;;;;;0.30;0.28;;;;;;;13.51;68.84;98516.12;1674512;83;21099;-66
2021/05/24 05:27:40;;;;;;;0.35;0.30;;;;;;;13.56;68.38;98527.77;1662730;85;21189;-67
2021/05/24 05:30:09;;;;;;;0.88;0.50;;;;;;;13.64;68.48;98529.64;1662679;85;21185;-66
2021/05/24 05:32:36;;;;;;;0.30;0.30;;;;;;;13.72;68.89;98534.94;1662772;85;21089;-66
2021/05/24 05:35:06;;;;;;;0.98;0.30;;;;;;;13.77;68.17;98537.94;1662630;85;21106;-66
2021/05/24 05:37:33;;;;;;;0.95;0.30;;;;;;;13.85;67.73;98545.02;1662700;85;21098;-66
2021/05/24 05:40:05;;;;;;;0.40;0.30;;;;;;;13.86;67.24;98546.16;1662525;85;21145;-64
2021/05/24 05:42:32;;;;;;;2.00;0.33;;;;;;;13.88;67.49;98542.92;1662592;85;21098;-65
2021/05/24 05:44:59;;;;;;;0.82;0.40;;;;;;;13.96;67.37;98557.36;1662694;85;21142;-66
2021/05/24 05:47:26;;;;;;;0.40;0.30;;;;;;;14.03;66.88;98554.97;1662696;85;21081;-65
2021/05/24 05:49:53;;;;;;;0.20;0.20;;;;;;;14.09;66.63;98553.87;1662812;85;21697;-66
2021/05/24 05:52:20;;;;;;;0.45;0.40;;;;;;;14.17;66.32;98562.26;1662720;85;21053;-66
2021/05/24 05:54:47;;;;;;;0.62;0.40;;;;;;;14.26;66.20;98556.97;1662844;85;21161;-66
2021/05/24 05:57:15;;;;;;;0.20;0.20;;;;;;;14.38;65.81;98556.27;1662723;85;21165;-66
2021/05/24 05:59:42;;;;;;;0.88;0.47;;;;;;;14.48;65.92;98556.98;1662622;85;21574;-63
2021/05/24 06:02:09;;;;;;;0.60;0.40;;;;;;;14.55;65.45;98553.30;1662670;85;21114;-63
2021/05/24 06:04:36;;;;;;;0.88;0.40;;;;;;;14.61;65.13;98546.13;1662584;85;21516;-63
2021/05/24 06:07:03;;;;;;;0.30;0.28;;;;;;;14.61;64.58;98544.34;1662615;85;21066;-63
2021/05/24 06:09:31;;;;;;;3.30;0.37;;;;;;;14.61;64.54;98540.42;1662568;85;21145;-63
2021/05/24 06:11:58;;;;;;;1.10;0.55;;;;;;;14.63;64.33;98542.86;1662611;85;21110;-66
2021/05/24 06:14:25;;;;;;;0.40;0.20;;;;;;;14.52;64.24;98546.56;1662800;85;21079;-65
2021/05/24 06:16:52;;;;;;;0.35;0.35;;;;;;;14.58;64.51;98547.27;1662945;85;21115;-65
2021/05/24 06:19:18;;;;;;;0.75;0.33;;;;;;;14.62;64.14;98548.60;1662911;85;21585;-65
2021/05/24 06:21:45;;;;;;;0.90;0.33;;;;;;;14.69;64.69;98554.03;1662920;85;21070;-65
2021/05/24 06:24:12;;;;;;;0.30;0.30;;;;;;;14.72;63.83;98554.53;1665192;84;21110;-62
2021/05/24 06:26:39;;;;;;;0.62;0.30;;;;;;;14.80;64.21;98543.78;1697008;83;21137;-63
2021/05/24 06:29:06;;;;;;;0.25;0.25;;;;;;;14.87;63.98;98530.42;1696851;83;21070;-64
2021/05/24 06:31:34;;;;;;;0.55;0.30;;;;;;;14.90;63.46;98524.39;1669609;83;21100;-65
2021/05/24 06:34:01;;;;;;;1.32;0.30;;;;;;;14.95;63.32;98519.52;1696728;81;21094;-63
2021/05/24 06:36:28;;;;;;;1.02;0.30;;;;;;;15.01;63.12;98518.09;1697014;83;21081;-65
2021/05/24 06:38:56;;;;;;;1.12;0.33;;;;;;;15.04;63.37;98512.53;1696770;83;21123;-63
2021/05/24 06:41:23;;;;;;;0.78;0.50;;;;;;;15.09;63.07;98508.48;1696833;83;21114;-64
2021/05/24 06:43:50;;;;;;;0.20;0.20;;;;;;;15.16;62.66;98506.87;1696938;83;21086;-64
2021/05/24 06:46:17;;;;;;;0.30;0.30;;;;;;;15.19;62.21;98503.10;1696745;83;21090;-64
2021/05/24 06:48:43;;;;;;;2.35;0.30;;;;;;;15.19;62.24;98495.25;1696706;83;21138;-64
2021/05/24 06:51:10;;;;;;;0.45;0.40;;;;;;;15.20;61.95;98504.75;1696768;83;21078;-65
2021/05/24 06:53:37;;;;;;;0.20;0.20;;;;;;;15.17;62.43;98498.53;1696943;82;21159;-64
2021/05/24 06:56:06;;;;;;;0.55;0.28;;;;;;;15.21;61.51;98483.64;1696749;82;21141;-63
2021/05/24 06:58:32;;;;;;;0.57;0.30;;;;;;;15.30;62.73;98484.48;1696934;83;21035;-63
2021/05/24 07:00:59;;;;;;;0.20;0.20;;;;;;;15.40;61.87;98495.66;1696906;83;21066;-65
2021/05/24 07:03:26;;;;;;;0.40;0.23;;;;;;;15.50;61.75;98495.05;1696696;83;21102;-65
2021/05/24 07:05:53;;;;;;;0.60;0.40;;;;;;;15.60;61.45;98502.25;1696686;83;21086;-65
2021/05/24 07:08:20;;;;;;;0.28;0.28;;;;;;;15.72;60.76;98512.44;1696871;83;21226;-65
2021/05/24 07:10:47;;;;;;;0.82;0.40;;;;;;;15.76;60.17;98510.62;1696854;83;21102;-65
2021/05/24 07:13:14;;;;;;;0.20;0.20;;;;;;;15.79;60.02;98502.95;1696937;82;21082;-66
2021/05/24 07:15:42;;;;;;;0.57;0.30;;;;;;;15.94;59.75;98500.02;1696979;83;21076;-66
2021/05/24 07:18:09;;;;;;;0.30;0.30;;;;;;;16.00;58.73;98507.20;1696761;83;21618;-65
2021/05/24 07:20:36;;;;;;;0.28;0.28;;;;;;;16.07;58.69;98510.80;1696844;83;21126;-66
2021/05/24 07:23:04;;;;;;;2.05;0.30;;;;;;;16.20;58.84;98514.24;1696807;83;21085;-66
2021/05/24 07:25:30;;;;;;;0.20;0.20;;;;;;;16.22;58.54;98525.39;1696669;83;21160;-65
2021/05/24 07:27:57;;;;;;;0.30;0.30;;;;;;;16.34;56.84;98526.70;1696720;83;21082;-66
2021/05/24 07:30:24;;;;;;;0.47;0.40;;;;;;;16.37;55.58;98531.12;1696905;83;21074;-66
2021/05/24 07:32:51;;;;;;;0.33;0.30;;;;;;;16.41;56.66;98523.25;1696762;83;21125;-66
2021/05/24 07:35:18;;;;;;;0.20;0.20;;;;;;;16.58;57.19;98513.08;1696772;82;21058;-65
2021/05/24 07:37:45;;;;;;;0.30;0.30;;;;;;;16.71;55.88;98509.12;1696833;83;21094;-66
2021/05/24 07:40:14;;;;;;;0.50;0.40;;;;;;;16.64;53.64;98518.65;1696828;82;21114;-65
2021/05/24 07:42:41;;;;;;;0.20;0.20;;;;;;;16.60;54.46;98524.23;1696724;83;21073;-66
2021/05/24 07:45:10;;;;;;;0.37;0.30;;;;;;;16.60;54.41;98530.79;1696804;83;21173;-66
2021/05/24 07:47:37;;;;;;;0.20;0.20;;;;;;;16.71;53.47;98524.37;1696848;83;21110;-63
2021/05/24 07:50:07;;;;;;;0.20;0.20;;;;;;;16.91;54.59;98507.75;1696763;83;21062;-64
2021/05/24 07:52:33;;;;;;;0.30;0.30;;;;;;;17.04;54.10;98509.36;1696847;83;21586;-65
2021/05/24 07:55:02;;;;;;;3.40;0.30;;;;;;;17.22;53.02;98512.55;1696765;83;21550;-65
2021/05/24 07:57:29;;;;;;;0.62;0.33;;;;;;;17.40;53.36;98505.23;1696776;81;21164;-66
2021/05/24 07:59:56;;;;;;;0.28;0.28;;;;;;;17.54;53.52;98505.82;1696791;82;21066;-65
2021/05/24 08:02:23;;;;;;;0.65;0.30;;;;;;;17.68;52.59;98506.91;1696621;83;21113;-63
2021/05/24 08:04:50;;;;;;;1.55;0.30;;;;;;;17.83;51.18;98499.90;1697026;83;21122;-65
2021/05/24 08:07:18;;;;;;;1.02;0.93;;;;;;;17.97;50.31;98487.82;1696933;82;21056;-65
2021/05/24 08:09:46;;;;;;;1.90;0.53;;;;;;;18.01;51.10;98489.89;1697109;81;21058;-64
2021/05/24 08:12:13;;;;;;;0.35;0.25;;;;;;;18.18;48.97;98484.01;1697170;81;21065;-66
2021/05/24 08:14:40;;;;;;;0.30;0.25;;;;;;;18.28;51.03;98490.34;1697157;83;21110;-65
2021/05/24 08:17:07;;;;;;;4.10;0.95;;;;;;;18.28;47.69;98495.11;1697055;82;21541;-65
2021/05/24 08:19:34;;;;;;;2.27;0.60;;;;;;;18.37;47.43;98495.33;1696985;83;21582;-66
2021/05/24 08:22:00;;;;;;;2.37;0.47;;;;;;;18.33;47.81;98509.01;1696896;81;21593;-66
2021/05/24 08:24:27;;;;;;;0.65;0.50;;;;;;;18.43;47.86;98503.84;1696975;82;21557;-65
2021/05/24 08:26:54;;;;;;;2.35;0.93;;;;;;;18.76;50.37;98503.52;1697242;83;21102;-64
2021/05/24 08:29:21;;;;;;;0.65;0.50;;;;;;;18.92;50.29;98495.44;1696854;83;21078;-64
2021/05/24 08:31:48;;;;;;;0.47;0.37;;;;;;;19.22;49.83;98499.66;1696754;83;21118;-64
2021/05/24 08:34:15;;;;;;;0.40;0.30;;;;;;;19.30;49.62;98492.98;1696993;83;21129;-65
2021/05/24 08:36:43;;;;;;;0.53;0.20;;;;;;;19.40;49.20;98484.80;1696954;83;21047;-64
2021/05/24 08:39:10;;;;;;;0.20;0.20;;;;;;;19.60;49.13;98486.36;1696833;83;21059;-65
2021/05/24 08:41:39;;;;;;;1.17;0.30;;;;;;;19.74;46.03;98490.25;1696899;83;21145;-65
2021/05/24 08:44:08;;;;;;;0.90;0.50;;;;;;;19.59;44.94;98493.44;1696752;81;21109;-66
2021/05/24 08:46:38;;;;;;;1.22;0.78;;;;;;;19.07;46.02;98498.87;1696516;83;21617;-65
2021/05/24 08:49:05;;;;;;;0.60;0.50;;;;;;;19.30;47.04;98486.39;1696744;82;21066;-65
2021/05/24 08:51:32;;;;;;;0.40;0.30;;;;;;;19.63;47.18;98469.67;1696815;83;21118;-66
2021/05/24 08:53:59;;;;;;;1.22;0.60;;;;;;;19.93;47.04;98463.76;1696736;83;21046;-63
2021/05/24 08:56:26;;;;;;;0.47;0.33;;;;;;;19.65;46.48;98467.66;1696638;83;21046;-65
2021/05/24 08:58:59;;;;;;;0.72;0.30;;;;;;;19.90;46.35;98474.69;1696883;83;21625;-65
2021/05/24 09:01:27;;;;;;;1.02;0.40;;;;;;;20.10;46.39;98476.17;1692487;82;21672;-65
2021/05/24 09:04:00;;;;;;;0.50;0.23;;;;;;;20.41;47.32;98483.75;1696825;83;21054;-66
2021/05/24 09:06:44;;;;;;;1.22;0.62;;;;;;;20.62;44.81;98483.17;1696904;83;21058;-65
2021/05/24 09:09:17;;;;;;;0.53;0.40;;;;;;;20.67;45.45;98488.69;1697076;83;21097;-66
2021/05/24 09:11:46;;;;;;;0.65;0.42;;;;;;;21.03;43.04;98504.33;1670560;82;21082;-66
2021/05/24 09:14:19;;;;;;;0.28;0.28;;;;;;;20.90;42.03;98491.55;1696647;83;21061;-65
2021/05/24 09:17:03;;;;;;;0.30;0.30;;;;;;;21.26;44.57;98498.27;1696827;82;21058;-65
2021/05/24 09:19:34;;;;;;;0.62;0.30;;;;;;;21.61;43.26;98498.16;1696655;82;21062;-65
2021/05/24 09:22:09;;;;;;;0.88;0.70;;;;;;;21.90;44.26;98491.72;1696270;83;21542;-65
2021/05/24 09:24:45;;;;;;;2.83;0.50;;;;;;;21.29;43.42;98479.37;1696707;83;21174;-65
2021/05/24 09:27:38;;;;;;;1.10;0.53;;;;;;;21.52;43.47;98469.77;1692791;83;21118;-65
2021/05/24 09:30:07;;;;;;;2.42;1.12;;;;;;;21.53;44.05;98456.88;1696659;81;21515;-66
2021/05/24 09:32:35;;;;;;;2.45;1.05;;;;;;;21.40;43.05;98464.77;1696653;83;21133;-64
2021/05/24 09:35:07;;;;;;;2.90;1.37;;;;;;;21.54;41.62;98473.55;1696664;83;21109;-65
2021/05/24 09:37:39;;;;;;;1.92;0.57;;;;;;;21.33;41.69;98474.50;1696532;83;21570;-66
2021/05/24 09:40:22;;;;;;;0.53;0.40;;;;;;;21.67;42.13;98467.77;1696910;83;21677;-66
2021/05/24 09:42:49;;;;;;;2.40;0.33;;;;;;;22.03;41.42;98463.47;1694170;83;21618;-65
2021/05/24 09:45:21;;;;;;;0.47;0.30;;;;;;;22.04;41.17;98471.72;1696666;81;21610;-65
2021/05/24 09:47:49;;;;;;;2.62;1.07;;;;;;;22.08;41.38;98468.97;1696786;83;21101;-68
2021/05/24 09:50:20;;;;;;;1.57;1.02;;;;;;;22.40;39.69;98472.62;1696805;83;21063;-68
2021/05/24 09:52:49;;;;;;;2.05;0.62;;;;;;;22.80;43.87;98468.08;1696830;83;21105;-67
2021/05/24 09:55:29;;;;;;;1.45;0.40;;;;;;;23.26;40.20;98459.98;1696678;83;21114;-66
2021/05/24 09:58:04;;;;;;;0.80;0.70;;;;;;;22.65;39.88;98461.67;1696845;83;21106;-66
2021/05/24 10:00:51;;;;;;;3.35;0.62;;;;;;;22.29;40.53;98457.88;1696790;83;21114;-64
2021/05/24 10:03:19;;;;;;;1.32;1.22;;;;;;;21.39;42.04;98451.27;1696940;82;21039;-66
2021/05/24 10:05:50;;;;;;;0.65;0.65;;;;;;;21.98;41.46;98464.61;1696655;83;21101;-65
2021/05/24 10:08:17;;;;;;;4.60;1.42;;;;;;;21.67;42.08;98457.20;1696699;83;21054;-64
2021/05/24 10:10:44;;;;;;;1.00;0.80;;;;;;;21.66;41.89;98470.13;1696833;83;21154;-68
2021/05/24 10:13:12;;;;;;;1.10;0.60;;;;;;;22.01;41.18;98461.55;1696839;82;21094;-68
2021/05/24 10:15:41;;;;;;;0.70;0.40;;;;;;;22.36;41.26;98464.79;1696728;83;21118;-68
2021/05/24 10:18:08;;;;;;;0.20;0.20;;;;;;;;;;1696475;83;21157;-66
2021/05/24 10:20:36;;;;;;;0.30;0.30;;;;;;;23.87;41.88;98458.09;1696003;83;21192;-66
2021/05/24 10:23:03;;;;;;;0.50;0.30;;;;;;;24.29;39.97;98458.70;1695483;83;21086;-65
2021/05/24 10:25:32;;;;;;;1.10;0.45;;;;;;;24.41;36.23;98452.97;1695757;83;21042;-65
2021/05/24 10:28:01;;;;;;;0.42;0.40;;;;;;;24.29;35.75;98445.42;1695965;82;21590;-64
2021/05/24 10:30:28;;;;;;;0.57;0.50;;;;;;;24.32;36.11;98436.23;1696111;83;21130;-65
2021/05/24 10:33:02;;;;;;;0.70;0.50;;;;;;;24.55;35.35;98431.87;1696489;83;21468;-65
2021/05/24 10:35:36;;;;;;;1.22;0.55;;;;;;;24.69;35.83;98427.77;1696535;83;21110;-65
2021/05/24 10:38:27;;;;;;;1.35;0.53;;;;;;;24.21;35.83;98435.08;1696808;82;21119;-64
2021/05/24 10:41:08;;;;;;;2.05;0.93;;;;;;;23.32;38.05;98427.83;1696805;83;21073;-64
2021/05/24 10:43:53;;;;;;;0.88;0.70;;;;;;;23.15;39.02;98416.92;1696856;83;21066;-64
2021/05/24 10:46:32;;;;;;;1.80;1.43;;;;;;;23.07;37.85;98410.01;1692842;82;21558;-65
2021/05/24 10:49:14;;;;;;;1.22;0.72;;;;;;;22.97;37.42;98414.14;1696744;81;21130;-64
2021/05/24 10:51:58;;;;;;;0.72;0.40;;;;;;;24.03;36.65;98418.59;1696738;83;21157;-64
2021/05/24 10:54:29;;;;;;;1.25;0.57;;;;;;;24.54;38.46;98425.48;1696737;82;21230;-64
2021/05/24 10:57:05;;;;;;;1.40;1.17;;;;;;;24.97;34.97;98416.95;1696746;81;21075;-65
2021/05/24 10:59:45;;;;;;;2.92;0.60;;;;;;;25.15;34.53;98416.61;1696935;81;21058;-68
2021/05/24 11:02:27;;;;;;;3.90;0.50;;;;;;;25.86;34.56;98416.11;1696705;83;21066;-68
2021/05/24 11:05:16;;;;;;;1.00;0.70;;;;;;;26.03;32.69;98409.56;1669378;84;21113;-64
2021/05/24 11:07:46;;;;;;;3.25;0.85;;;;;;;25.88;34.16;98417.19;1696743;83;21074;-64
2021/05/24 11:10:18;;;;;;;0.53;0.50;;;;;;;25.60;33.33;98413.05;1696715;83;21065;-64
2021/05/24 11:12:52;;;;;;;1.50;0.40;;;;;;;26.72;31.68;98401.28;1696426;83;21086;-66
2021/05/24 11:15:35;;;;;;;0.50;0.33;;;;;;;26.66;31.32;98406.20;1696641;83;21545;-64
2021/05/24 11:18:07;;;;;;;7.50;4.28;;;;;;;27.57;30.54;98414.69;1696751;83;21159;-65
2021/05/24 11:20:49;;;;;;;8.88;4.87;;;;;;;27.56;29.42;98407.72;1696981;81;21577;-65
2021/05/24 11:23:45;;;;;;;1.75;1.22;;;;;;;28.06;28.59;98390.38;1685948;83;21562;-65
2021/05/24 11:29:10;;;;;;;2.35;0.70;;;;;;;26.73;30.38;98386.92;1693538;83;21122;-68
2021/05/24 11:31:40;;;;;;;1.90;0.40;;;;;;;26.90;30.42;98395.81;1689737;83;21551;-68
2021/05/24 11:34:16;;;;;;;0.62;0.60;;;;;;;27.25;29.86;98408.48;1691607;84;21662;-67
2021/05/24 11:36:48;;;;;;;4.47;2.07;;;;;;;27.45;29.54;98400.05;1689113;83;21190;-68
2021/05/24 11:39:35;;;;;;;7.78;5.58;;;;;;;27.26;30.65;98388.78;1691688;83;21365;-66
2021/05/24 11:42:10;;;;;;;1.00;0.80;;;;;;;27.70;29.35;98389.82;1691728;83;21208;-74
2021/05/24 11:44:48;;;;;;;4.30;0.62;;;;;;;26.34;31.31;98385.84;1691794;83;21179;-72
2021/05/24 11:47:23;;;;;;;0.78;0.62;;;;;;;26.34;33.22;98387.95;1691787;83;21201;-72